createdAt,value
2023-05-23T00:01:26.672Z,15.30
2023-05-23T00:03:56.458Z,15.40
2023-05-23T00:06:25.206Z,15.40
2023-05-23T00:08:53.838Z,15.20
2023-05-23T00:11:27.147Z,15.20
2023-05-23T00:13:55.711Z,15.20
2023-05-23T00:16:24.169Z,15.30
2023-05-23T00:18:53.611Z,15.20
2023-05-23T00:21:22.161Z,15.20
2023-05-23T00:23:50.658Z,15.00
2023-05-23T00:26:19.119Z,14.90
2023-05-23T00:28:48.923Z,14.90
2023-05-23T00:31:17.789Z,15.00
2023-05-23T00:33:46.398Z,14.90
2023-05-23T00:36:14.912Z,15.00
2023-05-23T00:38:45.914Z,15.00
2023-05-23T00:41:14.454Z,14.90
2023-05-23T00:43:43.016Z,14.70
2023-05-23T00:46:13.263Z,14.40
2023-05-23T00:48:41.720Z,14.50
2023-05-23T00:51:10.187Z,14.50
2023-05-23T00:53:38.649Z,14.60
2023-05-23T00:56:07.548Z,14.70
2023-05-23T00:58:36.143Z,14.70
2023-05-23T01:01:04.661Z,14.80
2023-05-23T01:03:34.534Z,14.60
2023-05-23T01:06:03.516Z,14.60
2023-05-23T01:08:31.969Z,14.60
2023-05-23T01:11:05.288Z,14.70
2023-05-23T01:13:41.684Z,14.80
2023-05-23T01:16:15.483Z,14.80
2023-05-23T01:18:54.735Z,14.80
2023-05-23T01:21:24.815Z,14.80
2023-05-23T01:24:22.806Z,14.50
2023-05-23T01:27:02.868Z,14.60
2023-05-23T01:29:35.446Z,14.60
2023-05-23T01:32:05.222Z,14.60
2023-05-23T01:34:36.571Z,14.60
2023-05-23T01:37:09.864Z,14.70
2023-05-23T01:39:38.444Z,14.60
2023-05-23T01:42:07.642Z,14.60
2023-05-23T01:44:37.872Z,14.60
2023-05-23T01:47:08.529Z,14.60
2023-05-23T01:49:38.633Z,14.50
2023-05-23T01:52:10.303Z,14.40
2023-05-23T01:54:42.549Z,14.20
2023-05-23T01:57:11.932Z,14.20
2023-05-23T01:59:41.932Z,13.90
2023-05-23T02:02:10.591Z,14.00
2023-05-23T02:04:39.152Z,14.00
2023-05-23T02:07:07.708Z,14.10
2023-05-23T02:09:36.149Z,14.10
2023-05-23T02:12:04.889Z,13.90
2023-05-23T02:14:33.386Z,13.90
2023-05-23T02:17:04.503Z,14.00
2023-05-23T02:19:33.051Z,14.00
2023-05-23T02:22:01.596Z,14.10
2023-05-23T02:24:30.062Z,14.10
2023-05-23T02:26:58.500Z,14.10
2023-05-23T02:29:26.937Z,14.00
2023-05-23T02:31:55.426Z,14.00
2023-05-23T02:34:25.278Z,14.00
2023-05-23T02:36:53.864Z,13.90
2023-05-23T02:39:22.307Z,13.90
2023-05-23T02:41:50.863Z,13.90
2023-05-23T02:44:19.786Z,13.90
2023-05-23T02:46:48.307Z,13.90
2023-05-23T02:49:16.855Z,13.80
2023-05-23T02:51:46.676Z,13.90
2023-05-23T02:54:15.156Z,13.60
2023-05-23T02:56:43.692Z,13.60
2023-05-23T02:59:12.363Z,13.60
2023-05-23T03:01:40.972Z,13.50
2023-05-23T03:04:09.729Z,13.50
2023-05-23T03:06:38.186Z,13.50
2023-05-23T03:09:08.196Z,13.50
2023-05-23T03:11:36.630Z,13.60
2023-05-23T03:14:05.107Z,13.50
2023-05-23T03:16:33.778Z,13.50
2023-05-23T03:19:02.449Z,13.60
2023-05-23T03:21:31.346Z,13.40
2023-05-23T03:23:59.795Z,13.40
2023-05-23T03:26:29.608Z,13.50
2023-05-23T03:28:58.344Z,13.60
2023-05-23T03:31:26.912Z,13.70
2023-05-23T03:33:55.396Z,13.50
2023-05-23T03:36:26.152Z,13.30
2023-05-23T03:38:54.983Z,13.40
2023-05-23T03:41:23.447Z,13.50
2023-05-23T03:43:53.378Z,13.50
2023-05-23T03:46:22.028Z,13.60
2023-05-23T03:48:51.380Z,13.70
2023-05-23T03:51:19.878Z,13.70
2023-05-23T03:53:48.432Z,13.60
2023-05-23T03:56:16.913Z,13.60
2023-05-23T03:58:45.992Z,13.70
2023-05-23T04:01:16.000Z,13.50
2023-05-23T04:03:44.539Z,13.70
2023-05-23T04:06:14.410Z,13.80
2023-05-23T04:08:43.613Z,14.00
2023-05-23T04:11:12.082Z,14.10
2023-05-23T04:13:40.558Z,14.20
2023-05-23T04:16:09.574Z,14.30
2023-05-23T04:18:39.852Z,14.40
2023-05-23T04:21:08.309Z,14.40
2023-05-23T04:23:36.779Z,14.40
2023-05-23T04:26:05.811Z,14.50
2023-05-23T04:28:35.396Z,14.50
2023-05-23T04:31:04.289Z,14.60
2023-05-23T04:33:34.232Z,14.70
2023-05-23T04:36:05.019Z,14.60
2023-05-23T04:38:33.767Z,14.60
2023-05-23T04:41:03.334Z,14.90
2023-05-23T04:43:33.701Z,14.80
2023-05-23T04:46:02.281Z,15.00
2023-05-23T04:48:31.501Z,15.20
2023-05-23T04:51:02.124Z,15.30
2023-05-23T04:53:32.069Z,15.40
2023-05-23T04:56:00.511Z,15.50
2023-05-23T04:58:29.361Z,15.70
2023-05-23T05:00:57.969Z,15.80
2023-05-23T05:03:26.432Z,15.90
2023-05-23T05:05:55.239Z,16.10
2023-05-23T05:08:23.829Z,16.30
2023-05-23T05:10:53.634Z,16.40
2023-05-23T05:13:22.089Z,16.60
2023-05-23T05:15:50.621Z,16.70
2023-05-23T05:18:19.087Z,16.80
2023-05-23T05:20:47.580Z,16.90
2023-05-23T05:23:16.199Z,17.30
2023-05-23T05:25:44.753Z,17.90
2023-05-23T05:28:14.604Z,18.60
2023-05-23T05:30:43.524Z,19.30
2023-05-23T05:33:12.235Z,19.90
2023-05-23T05:35:40.670Z,20.50
2023-05-23T05:38:10.993Z,21.10
2023-05-23T05:40:39.819Z,21.80
2023-05-23T05:43:08.460Z,22.50
2023-05-23T05:45:38.516Z,23.00
2023-05-23T05:48:07.933Z,23.50
2023-05-23T05:50:36.604Z,23.80
2023-05-23T05:53:05.184Z,24.00
2023-05-23T05:55:33.650Z,24.50
2023-05-23T05:58:02.206Z,25.00
2023-05-23T06:00:30.728Z,25.60
2023-05-23T06:03:00.703Z,26.00
2023-05-23T06:05:29.181Z,26.30
2023-05-23T06:07:57.709Z,26.60
2023-05-23T06:10:26.434Z,26.70
2023-05-23T06:12:54.941Z,26.80
2023-05-23T06:15:23.501Z,26.80
2023-05-23T06:17:52.690Z,26.80
2023-05-23T06:20:22.672Z,27.10
2023-05-23T06:22:51.250Z,27.30
2023-05-23T06:25:19.669Z,27.30
2023-05-23T06:27:48.222Z,27.10
2023-05-23T06:30:17.194Z,26.90
2023-05-23T06:32:45.723Z,26.90
2023-05-23T06:35:14.301Z,27.20
2023-05-23T06:37:45.795Z,27.50
2023-05-23T06:40:14.721Z,27.70
2023-05-23T06:42:43.209Z,27.80
2023-05-23T06:45:14.204Z,27.60
2023-05-23T06:47:45.796Z,27.30
2023-05-23T06:50:14.367Z,27.10
2023-05-23T06:52:44.178Z,27.00
2023-05-23T06:55:15.542Z,26.80
2023-05-23T06:57:43.973Z,26.70
2023-05-23T07:00:14.001Z,26.80
2023-05-23T07:02:42.634Z,27.00
2023-05-23T07:05:11.290Z,26.90
2023-05-23T07:07:40.111Z,26.80
2023-05-23T07:10:11.301Z,26.60
2023-05-23T07:12:39.798Z,26.50
2023-05-23T07:15:09.537Z,26.70
2023-05-23T07:17:37.984Z,26.40
2023-05-23T07:20:07.462Z,26.20
2023-05-23T07:22:35.973Z,26.30
2023-05-23T07:25:04.972Z,26.30
2023-05-23T07:27:35.303Z,26.30
2023-05-23T07:30:04.707Z,26.20
2023-05-23T07:32:33.262Z,26.20
2023-05-23T07:35:01.777Z,26.00
2023-05-23T07:37:30.242Z,25.70
2023-05-23T07:39:58.764Z,25.60
2023-05-23T07:42:27.266Z,25.60
2023-05-23T07:44:57.046Z,25.70
2023-05-23T07:47:25.555Z,26.00
2023-05-23T07:49:54.041Z,26.20
2023-05-23T07:52:22.455Z,26.40
2023-05-23T07:54:50.919Z,26.60
2023-05-23T07:57:19.448Z,26.90
2023-05-23T07:59:47.864Z,27.30
2023-05-23T08:02:17.789Z,27.60
2023-05-23T08:04:46.762Z,27.80
2023-05-23T08:07:17.332Z,28.00
2023-05-23T08:09:47.115Z,28.10
2023-05-23T08:12:15.593Z,28.40
2023-05-23T08:14:51.367Z,28.60
2023-05-23T08:17:22.567Z,28.60
2023-05-23T08:19:51.154Z,28.50
2023-05-23T08:22:19.599Z,28.60
2023-05-23T08:24:48.062Z,28.50
2023-05-23T08:27:16.501Z,28.40
2023-05-23T08:29:44.957Z,28.30
2023-05-23T08:32:13.628Z,28.20
2023-05-23T08:34:44.059Z,28.20
2023-05-23T08:37:12.646Z,28.20
2023-05-23T08:39:41.708Z,28.20
2023-05-23T08:42:10.333Z,28.30
2023-05-23T08:44:40.799Z,28.30
2023-05-23T08:47:10.043Z,28.30
2023-05-23T08:49:39.590Z,28.30
2023-05-23T08:52:13.439Z,28.30
2023-05-23T08:54:42.950Z,28.10
2023-05-23T08:57:11.691Z,28.20
2023-05-23T08:59:40.508Z,28.30
2023-05-23T09:02:13.100Z,28.30
2023-05-23T09:04:41.564Z,28.30
2023-05-23T09:07:11.794Z,28.30
2023-05-23T09:09:40.500Z,28.40
2023-05-23T09:12:10.285Z,28.40
2023-05-23T09:14:38.819Z,28.40
2023-05-23T09:17:07.237Z,28.40
2023-05-23T09:19:35.863Z,28.40
2023-05-23T09:22:04.860Z,28.40
2023-05-23T09:24:39.307Z,28.40
2023-05-23T09:27:08.334Z,28.40
2023-05-23T09:29:39.642Z,28.40
2023-05-23T09:32:17.910Z,28.40
2023-05-23T09:34:57.426Z,28.40
2023-05-23T09:37:31.277Z,28.40
2023-05-23T09:40:02.319Z,28.20
2023-05-23T09:42:35.171Z,28.20
2023-05-23T09:45:04.872Z,28.30
2023-05-23T09:47:33.649Z,28.20
2023-05-23T09:50:02.149Z,28.30
2023-05-23T09:52:37.370Z,28.40
2023-05-23T09:55:08.493Z,28.40
2023-05-23T09:57:38.392Z,28.30
2023-05-23T10:00:11.123Z,28.20
2023-05-23T10:03:10.721Z,28.00
2023-05-23T10:05:43.104Z,27.60
2023-05-23T10:08:16.236Z,27.40
2023-05-23T10:11:32.220Z,27.10
2023-05-23T10:14:03.416Z,26.80
2023-05-23T10:16:40.853Z,26.50
2023-05-23T10:19:15.787Z,26.20
2023-05-23T10:21:46.878Z,25.90
2023-05-23T10:24:16.108Z,25.70
2023-05-23T10:26:45.132Z,25.50
2023-05-23T10:29:15.161Z,25.30
2023-05-23T10:31:43.897Z,25.20
2023-05-23T10:34:16.785Z,25.10
2023-05-23T10:36:52.475Z,24.90
2023-05-23T10:39:26.189Z,24.80
2023-05-23T10:42:00.254Z,24.80
2023-05-23T10:44:31.811Z,24.70
2023-05-23T10:47:02.444Z,24.70
2023-05-23T10:49:41.717Z,24.70
2023-05-23T10:52:11.490Z,24.60
2023-05-23T10:54:45.308Z,24.60
2023-05-23T10:57:17.599Z,24.80
2023-05-23T10:59:48.456Z,25.00
2023-05-23T11:02:17.818Z,25.20
2023-05-23T11:04:48.338Z,25.40
2023-05-23T11:07:33.207Z,25.60
2023-05-23T11:10:05.610Z,25.70
2023-05-23T11:12:42.311Z,26.00
2023-05-23T11:15:22.525Z,26.30
2023-05-23T11:17:53.523Z,26.50
2023-05-23T11:20:24.517Z,26.70
2023-05-23T11:23:00.096Z,26.90
2023-05-23T11:25:42.436Z,27.10
2023-05-23T11:28:11.809Z,27.10
2023-05-23T11:30:42.636Z,26.80
2023-05-23T11:33:13.794Z,26.60
2023-05-23T11:35:42.817Z,26.50
2023-05-23T11:38:11.735Z,26.50
2023-05-23T11:40:41.632Z,26.40
2023-05-23T11:43:12.078Z,26.30
2023-05-23T11:45:42.704Z,26.00
2023-05-23T11:48:11.910Z,25.30
2023-05-23T11:50:48.331Z,24.70
2023-05-23T11:53:20.587Z,24.30
2023-05-23T11:55:54.408Z,24.10
2023-05-23T11:58:23.838Z,23.50
2023-05-23T12:00:55.340Z,23.00
2023-05-23T12:03:24.223Z,22.50
2023-05-23T12:05:52.986Z,22.10
2023-05-23T12:08:21.519Z,21.80
2023-05-23T12:10:54.448Z,21.60
2023-05-23T12:13:26.164Z,21.40
2023-05-23T12:16:00.627Z,21.20
2023-05-23T12:18:30.039Z,20.90
2023-05-23T12:21:01.904Z,20.70
2023-05-23T12:23:33.096Z,20.70
2023-05-23T12:26:06.845Z,20.60
2023-05-23T12:28:39.931Z,20.30
2023-05-23T12:31:13.783Z,20.30
2023-05-23T12:33:43.994Z,20.30
2023-05-23T12:36:12.723Z,20.30
2023-05-23T12:38:45.233Z,20.30
2023-05-23T12:41:14.453Z,20.20
2023-05-23T12:43:50.337Z,20.30
2023-05-23T12:46:20.525Z,20.30
2023-05-23T12:48:49.016Z,20.10
2023-05-23T12:51:17.718Z,20.10
2023-05-23T12:53:46.354Z,20.00
2023-05-23T12:56:14.833Z,20.00
2023-05-23T12:58:43.578Z,19.90
2023-05-23T13:01:12.339Z,19.80
2023-05-23T13:03:42.471Z,19.80
2023-05-23T13:06:11.506Z,19.80
2023-05-23T13:08:40.035Z,19.70
2023-05-23T13:11:08.938Z,19.70
2023-05-23T13:13:37.451Z,19.60
2023-05-23T13:16:06.299Z,19.60
2023-05-23T13:18:34.789Z,19.70
2023-05-23T13:21:05.064Z,19.70
2023-05-23T13:23:33.578Z,19.50
2023-05-23T13:26:02.165Z,19.70
2023-05-23T13:28:31.067Z,19.80
2023-05-23T13:31:00.009Z,19.70
2023-05-23T13:33:28.836Z,19.60
2023-05-23T13:35:57.370Z,19.60
2023-05-23T13:38:27.793Z,19.70
2023-05-23T13:40:56.365Z,19.60
2023-05-23T13:43:24.913Z,19.70
2023-05-23T13:45:53.618Z,19.80
2023-05-23T13:48:22.201Z,19.90
2023-05-23T13:50:50.710Z,20.00
2023-05-23T13:53:22.394Z,20.10
2023-05-23T13:55:52.366Z,20.20
2023-05-23T13:58:22.350Z,20.30
2023-05-23T14:00:53.540Z,20.40
2023-05-23T14:03:22.298Z,20.50
2023-05-23T14:05:50.995Z,20.60
2023-05-23T14:08:20.062Z,20.70
2023-05-23T14:10:48.542Z,20.80
2023-05-23T14:13:19.657Z,20.90
2023-05-23T14:15:49.314Z,21.00
2023-05-23T14:18:18.042Z,21.00
2023-05-23T14:20:46.779Z,20.90
2023-05-23T14:23:15.340Z,20.90
2023-05-23T14:25:43.900Z,20.80
2023-05-23T14:28:12.520Z,20.80
2023-05-23T14:30:42.393Z,20.70
2023-05-23T14:33:11.348Z,20.70
2023-05-23T14:35:40.299Z,20.60
2023-05-23T14:38:08.894Z,20.70
2023-05-23T14:40:37.410Z,20.70
2023-05-23T14:43:06.195Z,20.60
2023-05-23T14:45:34.744Z,20.50
2023-05-23T14:48:05.627Z,20.50
2023-05-23T14:50:34.464Z,20.30
2023-05-23T14:53:03.110Z,20.30
2023-05-23T14:55:31.644Z,20.20
2023-05-23T14:58:00.204Z,20.10
2023-05-23T15:00:28.687Z,20.10
2023-05-23T15:02:57.222Z,20.00
2023-05-23T15:05:27.195Z,20.10
2023-05-23T15:07:56.472Z,19.90
2023-05-23T15:10:25.054Z,19.70
2023-05-23T15:12:53.578Z,19.20
2023-05-23T15:15:23.553Z,18.90
2023-05-23T15:17:52.778Z,18.80
2023-05-23T15:20:21.273Z,18.80
2023-05-23T15:22:51.725Z,18.80
2023-05-23T15:25:30.342Z,18.80
2023-05-23T15:28:07.194Z,18.60
2023-05-23T15:30:36.382Z,18.30
2023-05-23T15:33:04.975Z,18.00
2023-05-23T15:35:33.463Z,17.80
2023-05-23T15:38:05.508Z,17.80
2023-05-23T15:40:37.099Z,17.80
2023-05-23T15:43:05.795Z,17.80
2023-05-23T15:45:34.305Z,17.70
2023-05-23T15:48:02.759Z,17.60
2023-05-23T15:50:31.758Z,17.60
2023-05-23T15:53:00.247Z,17.70
2023-05-23T15:55:30.599Z,17.80
2023-05-23T15:57:59.148Z,17.80
2023-05-23T16:00:27.903Z,17.80
2023-05-23T16:02:56.394Z,17.80
2023-05-23T16:05:25.766Z,17.70
2023-05-23T16:07:54.236Z,17.60
2023-05-23T16:10:24.009Z,17.70
2023-05-23T16:12:53.877Z,17.70
2023-05-23T16:15:22.549Z,17.60
2023-05-23T16:17:51.031Z,17.70
2023-05-23T16:20:19.719Z,17.80
2023-05-23T16:22:48.423Z,17.90
2023-05-23T16:25:16.997Z,17.90
2023-05-23T16:27:45.470Z,18.10
2023-05-23T16:30:15.662Z,18.20
2023-05-23T16:32:44.233Z,18.30
2023-05-23T16:35:12.688Z,18.30
2023-05-23T16:37:41.154Z,18.40
2023-05-23T16:40:10.735Z,18.40
2023-05-23T16:42:39.304Z,18.40
2023-05-23T16:45:09.055Z,18.40
2023-05-23T16:47:39.064Z,18.40
2023-05-23T16:50:09.266Z,18.50
2023-05-23T16:52:39.585Z,18.60
2023-05-23T16:55:08.442Z,18.60
2023-05-23T16:57:37.026Z,18.60
2023-05-23T17:00:07.589Z,18.60
2023-05-23T17:02:36.261Z,18.60
2023-05-23T17:05:07.235Z,18.70
2023-05-23T17:07:35.742Z,18.70
2023-05-23T17:10:04.411Z,18.70
2023-05-23T17:12:32.895Z,18.70
2023-05-23T17:15:01.364Z,18.70
2023-05-23T17:17:29.860Z,18.70
2023-05-23T17:19:58.474Z,18.70
2023-05-23T17:22:28.325Z,18.80
2023-05-23T17:24:56.821Z,18.70
2023-05-23T17:27:25.297Z,18.70
2023-05-23T17:29:53.766Z,18.60
2023-05-23T17:32:22.302Z,18.50
2023-05-23T17:34:51.353Z,18.60
2023-05-23T17:37:20.212Z,18.40
2023-05-23T17:39:51.073Z,18.50
2023-05-23T17:42:19.570Z,18.50
2023-05-23T17:44:48.029Z,18.50
2023-05-23T17:47:18.317Z,18.50
2023-05-23T17:49:46.810Z,18.50
2023-05-23T17:52:15.561Z,18.40
2023-05-23T17:54:44.020Z,18.40
2023-05-23T17:57:13.953Z,18.40
2023-05-23T17:59:42.429Z,18.30
2023-05-23T18:02:10.916Z,18.20
2023-05-23T18:04:39.718Z,18.00
2023-05-23T18:07:10.733Z,18.10
2023-05-23T18:09:39.194Z,18.00
2023-05-23T18:12:08.097Z,18.00
2023-05-23T18:14:39.339Z,17.90
2023-05-23T18:17:08.525Z,17.90
2023-05-23T18:19:37.560Z,17.90
2023-05-23T18:22:06.591Z,17.80
2023-05-23T18:24:35.085Z,17.70
2023-05-23T18:27:04.560Z,17.70
2023-05-23T18:29:33.257Z,17.70
2023-05-23T18:32:03.096Z,17.60
2023-05-23T18:34:31.964Z,17.50
2023-05-23T18:37:02.996Z,17.40
2023-05-23T18:39:31.535Z,17.40
2023-05-23T18:42:00.068Z,17.40
2023-05-23T18:44:28.729Z,17.40
2023-05-23T18:46:57.440Z,17.30
2023-05-23T18:49:27.470Z,17.20
2023-05-23T18:51:56.102Z,17.30
2023-05-23T18:54:24.615Z,17.30
2023-05-23T18:56:53.045Z,17.30
2023-05-23T18:59:21.964Z,17.20
2023-05-23T19:01:50.403Z,17.30
2023-05-23T19:04:19.342Z,17.30
2023-05-23T19:06:49.552Z,17.30
2023-05-23T19:09:18.043Z,17.30
2023-05-23T19:11:46.545Z,17.30
2023-05-23T19:14:15.012Z,17.10
2023-05-23T19:16:43.626Z,17.00
2023-05-23T19:19:12.425Z,17.10
2023-05-23T19:21:40.896Z,17.10
2023-05-23T19:24:11.859Z,17.10
2023-05-23T19:26:42.511Z,17.00
2023-05-23T19:29:11.519Z,17.00
2023-05-23T19:31:40.184Z,17.00
2023-05-23T19:34:08.711Z,17.00
2023-05-23T19:36:37.377Z,17.00
2023-05-23T19:39:06.906Z,17.00
2023-05-23T19:41:36.997Z,17.00
2023-05-23T19:44:05.693Z,17.00
2023-05-23T19:46:34.325Z,17.00
2023-05-23T19:49:03.049Z,17.00
2023-05-23T19:51:31.746Z,17.00
2023-05-23T19:54:00.296Z,17.00
2023-05-23T19:56:28.912Z,17.00
2023-05-23T19:58:58.826Z,17.00
2023-05-23T20:01:27.664Z,16.90
2023-05-23T20:03:56.214Z,16.90
2023-05-23T20:06:24.705Z,16.70
2023-05-23T20:08:53.167Z,16.70
2023-05-23T20:11:22.446Z,16.70
2023-05-23T20:13:50.863Z,16.60
2023-05-23T20:16:21.889Z,16.70
2023-05-23T20:18:51.088Z,16.80
2023-05-23T20:21:19.628Z,16.80
2023-05-23T20:23:49.121Z,16.80
2023-05-23T20:26:17.638Z,16.80
2023-05-23T20:28:46.057Z,16.80
2023-05-23T20:31:14.620Z,16.90
2023-05-23T20:33:44.523Z,16.90
2023-05-23T20:36:13.011Z,16.90
2023-05-23T20:38:42.265Z,16.80
2023-05-23T20:41:11.280Z,16.80
2023-05-23T20:43:39.653Z,16.80
2023-05-23T20:46:09.268Z,16.70
2023-05-23T20:48:37.762Z,16.70
2023-05-23T20:51:08.112Z,16.60
2023-05-23T20:53:36.852Z,16.60
2023-05-23T20:56:06.090Z,16.70
2023-05-23T20:58:34.648Z,16.70
2023-05-23T21:01:03.162Z,16.80
2023-05-23T21:03:31.798Z,16.80
2023-05-23T21:06:00.438Z,16.80
2023-05-23T21:08:31.787Z,16.80
2023-05-23T21:11:02.279Z,16.70
2023-05-23T21:13:30.849Z,16.70
2023-05-23T21:15:59.337Z,16.70
2023-05-23T21:18:27.805Z,16.60
2023-05-23T21:20:56.311Z,16.50
2023-05-23T21:23:24.774Z,16.60
2023-05-23T21:25:54.739Z,16.60
2023-05-23T21:28:23.387Z,16.60
2023-05-23T21:30:52.357Z,16.60
2023-05-23T21:33:21.107Z,16.60
2023-05-23T21:35:49.884Z,16.70
2023-05-23T21:38:18.515Z,16.60
2023-05-23T21:40:47.037Z,16.70
2023-05-23T21:43:16.837Z,16.70
2023-05-23T21:45:45.321Z,16.70
2023-05-23T21:48:13.736Z,16.70
2023-05-23T21:50:42.330Z,16.70
2023-05-23T21:53:11.007Z,16.70
2023-05-23T21:55:39.595Z,16.60
2023-05-23T21:58:08.050Z,16.70
2023-05-23T22:00:38.759Z,16.70
2023-05-23T22:03:07.384Z,16.60
2023-05-23T22:05:35.966Z,16.60
2023-05-23T22:08:04.584Z,16.50
2023-05-23T22:10:36.749Z,16.60
2023-05-23T22:13:05.394Z,16.50
2023-05-23T22:15:35.344Z,16.30
2023-05-23T22:18:05.486Z,16.30
2023-05-23T22:20:38.247Z,16.30
2023-05-23T22:23:07.472Z,16.40
2023-05-23T22:25:35.918Z,16.40
2023-05-23T22:28:04.435Z,16.40
2023-05-23T22:30:32.845Z,16.40
2023-05-23T22:33:01.738Z,16.30
2023-05-23T22:35:32.135Z,16.30
2023-05-23T22:38:00.892Z,16.30
2023-05-23T22:40:29.393Z,16.40
2023-05-23T22:42:57.963Z,16.40
2023-05-23T22:45:28.642Z,16.40
2023-05-23T22:47:58.198Z,16.40
2023-05-23T22:50:27.039Z,16.30
2023-05-23T22:52:58.367Z,16.30
2023-05-23T22:55:26.817Z,16.40
2023-05-23T22:57:55.273Z,16.40
2023-05-23T23:00:23.940Z,16.40
2023-05-23T23:02:53.799Z,16.30
2023-05-23T23:05:23.004Z,16.30
2023-05-23T23:07:51.440Z,16.20
2023-05-23T23:10:21.445Z,16.30
2023-05-23T23:12:49.876Z,16.30
2023-05-23T23:15:18.349Z,16.40
2023-05-23T23:17:46.880Z,16.40
2023-05-23T23:20:17.337Z,16.40
2023-05-23T23:22:47.094Z,16.50
2023-05-23T23:25:15.538Z,16.50
2023-05-23T23:27:45.646Z,16.50
2023-05-23T23:30:14.449Z,16.50
2023-05-23T23:32:43.007Z,16.50
2023-05-23T23:35:11.473Z,16.50
2023-05-23T23:37:40.369Z,16.50
2023-05-23T23:40:09.989Z,16.50
2023-05-23T23:42:38.542Z,16.50
2023-05-23T23:45:09.439Z,16.50
2023-05-23T23:47:37.927Z,16.60
2023-05-23T23:50:07.698Z,16.50
2023-05-23T23:52:37.188Z,16.50
2023-05-23T23:55:06.457Z,16.60
2023-05-23T23:57:34.869Z,16.50
